Terminal Aerodrome Forecast
Issued by NWS

Current Version | Previous Version | Text Only | Print | Product List | Glossary On
Versions: 1 2 3 4 5 6 7 8 9 10 11 12 13 14 15 16 17 18 19 20 21 22 23 24
000
FTUS44 KOUN 311138
TAFHBR
TAF
KHBR 311138Z 3112/0112 16012KT 6SM -RA OVC035
     FM311500 18014KT 3SM -RA BR OVC009
     FM010000 19010KT 2SM BR OVC006
      TEMPO 0100/0104 1SM -RA BR
     FM011100 34014KT 4SM BR OVC015=

USA.gov is the U.S. government's official web portal to all federal, state and local government web resources and services.